createdAt,value
2019-01-12T00:00:20.341Z,8.27
2019-01-12T00:02:48.749Z,11.53
2019-01-12T00:05:17.257Z,10.63
2019-01-12T00:07:45.653Z,10.17
2019-01-12T00:10:14.196Z,10.17
2019-01-12T00:12:42.657Z,9.23
2019-01-12T00:15:11.209Z,10.93
2019-01-12T00:17:39.650Z,9.77
2019-01-12T00:20:08.830Z,11.30
2019-01-12T00:22:37.297Z,10.37
2019-01-12T00:25:07.717Z,8.87
2019-01-12T00:27:36.113Z,9.57
2019-01-12T00:30:07.882Z,8.83
2019-01-12T00:32:37.330Z,8.43
2019-01-12T00:35:06.416Z,10.83
2019-01-12T00:37:34.832Z,10.73
2019-01-12T00:40:04.821Z,9.90
2019-01-12T00:42:33.220Z,7.40
2019-01-12T00:45:01.634Z,9.67
2019-01-12T00:47:30.040Z,10.43
2019-01-12T00:49:58.509Z,8.27
2019-01-12T00:52:26.993Z,7.93
2019-01-12T00:54:55.440Z,8.27
2019-01-12T00:57:23.836Z,9.77
2019-01-12T00:59:52.281Z,10.10
2019-01-12T01:02:20.704Z,6.90
2019-01-12T01:04:49.227Z,8.63
2019-01-12T01:07:17.682Z,9.33
2019-01-12T01:09:46.113Z,9.47
2019-01-12T01:12:15.396Z,8.83
2019-01-12T01:14:43.832Z,8.90
2019-01-12T01:17:12.376Z,10.00
2019-01-12T01:19:40.818Z,8.10
2019-01-12T01:22:09.348Z,8.63
2019-01-12T01:24:38.301Z,8.07
2019-01-12T01:27:06.796Z,8.57
2019-01-12T01:29:35.361Z,7.17
2019-01-12T01:32:03.945Z,9.30
2019-01-12T01:34:32.352Z,9.47
2019-01-12T01:37:00.769Z,8.40
2019-01-12T01:39:29.199Z,8.73
2019-01-12T01:41:57.630Z,8.30
2019-01-12T01:44:26.054Z,9.37
2019-01-12T01:46:54.484Z,10.37
2019-01-12T01:49:22.918Z,10.03
2019-01-12T01:51:51.350Z,8.57
2019-01-12T01:54:19.810Z,9.17
2019-01-12T01:56:48.227Z,9.50
2019-01-12T01:59:16.672Z,10.57
2019-01-12T02:01:45.071Z,10.30
2019-01-12T02:04:13.501Z,10.67
2019-01-12T02:06:41.915Z,9.70
2019-01-12T02:09:10.341Z,10.00
2019-01-12T02:11:38.829Z,10.43
2019-01-12T02:14:07.268Z,9.90
2019-01-12T02:16:35.710Z,9.87
2019-01-12T02:19:04.314Z,9.43
2019-01-12T02:21:32.776Z,9.30
2019-01-12T02:24:01.191Z,10.93
2019-01-12T02:26:29.640Z,9.73
2019-01-12T02:28:58.078Z,8.90
2019-01-12T02:31:26.559Z,10.73
2019-01-12T02:33:54.991Z,11.43
2019-01-12T02:36:23.471Z,10.33
2019-01-12T02:38:51.917Z,11.17
2019-01-12T02:41:20.352Z,9.47
2019-01-12T02:43:48.781Z,10.97
2019-01-12T02:46:17.323Z,9.73
2019-01-12T02:48:45.804Z,10.80
2019-01-12T02:51:14.236Z,9.53
2019-01-12T02:53:42.706Z,9.80
2019-01-12T02:56:11.175Z,8.13
2019-01-12T02:58:39.599Z,9.73
2019-01-12T03:01:08.076Z,9.03
2019-01-12T03:03:36.575Z,9.60
2019-01-12T03:06:05.028Z,8.23
2019-01-12T03:08:33.550Z,8.23
2019-01-12T03:11:01.946Z,9.43
2019-01-12T03:13:30.402Z,8.63
2019-01-12T03:15:58.800Z,10.67
2019-01-12T03:18:27.232Z,8.57
2019-01-12T03:20:55.723Z,8.93
2019-01-12T03:23:24.163Z,8.50
2019-01-12T03:25:52.616Z,7.50
2019-01-12T03:28:21.055Z,8.37
2019-01-12T03:30:49.481Z,8.90
2019-01-12T03:33:17.920Z,6.83
2019-01-12T03:35:46.313Z,6.47
2019-01-12T03:38:14.743Z,7.87
2019-01-12T03:40:44.138Z,6.83
2019-01-12T03:43:12.571Z,7.90
2019-01-12T03:45:41.073Z,7.63
2019-01-12T03:48:09.545Z,7.30
2019-01-12T03:50:38.043Z,9.20
2019-01-12T03:53:06.482Z,6.13
2019-01-12T03:55:34.951Z,8.60
2019-01-12T03:58:03.405Z,8.67
2019-01-12T04:00:31.889Z,8.70
2019-01-12T04:03:00.308Z,8.63
2019-01-12T04:05:28.768Z,9.67
2019-01-12T04:07:57.194Z,9.40
2019-01-12T04:10:25.635Z,10.17
2019-01-12T04:12:54.102Z,12.40
2019-01-12T04:15:22.574Z,10.87
2019-01-12T04:17:50.988Z,8.83
2019-01-12T04:20:19.485Z,9.83
2019-01-12T04:22:47.951Z,10.43
2019-01-12T04:25:16.480Z,9.93
2019-01-12T04:27:44.990Z,9.20
2019-01-12T04:30:16.881Z,9.37
2019-01-12T04:32:45.430Z,10.83
2019-01-12T04:35:14.001Z,10.03
2019-01-12T04:37:42.647Z,8.13
2019-01-12T04:40:16.201Z,9.93
2019-01-12T04:42:44.727Z,9.60
2019-01-12T04:45:13.330Z,8.80
2019-01-12T04:47:41.802Z,9.53
2019-01-12T04:50:13.186Z,9.00
2019-01-12T04:52:41.687Z,9.20
2019-01-12T04:55:10.301Z,9.03
2019-01-12T04:57:38.755Z,7.03
2019-01-12T05:00:10.344Z,7.47
2019-01-12T05:02:38.814Z,7.73
2019-01-12T05:05:07.293Z,6.57
2019-01-12T05:07:35.770Z,5.97
2019-01-12T05:10:06.592Z,7.20
2019-01-12T05:12:35.048Z,6.80
2019-01-12T05:15:04.914Z,7.43
2019-01-12T05:17:33.398Z,7.27
2019-01-12T05:20:01.916Z,7.40
2019-01-12T05:22:30.430Z,8.30
2019-01-12T05:24:58.877Z,7.27
2019-01-12T05:27:27.357Z,6.77
2019-01-12T05:29:55.841Z,7.13
2019-01-12T05:32:24.321Z,7.07
2019-01-12T05:34:52.762Z,6.87
2019-01-12T05:37:21.234Z,7.57
2019-01-12T05:39:49.680Z,7.03
2019-01-12T05:42:18.090Z,6.53
2019-01-12T05:44:46.536Z,6.47
2019-01-12T05:47:14.954Z,6.70
2019-01-12T05:49:43.386Z,5.40
2019-01-12T05:52:11.801Z,5.70
2019-01-12T05:54:40.288Z,5.80
2019-01-12T05:57:08.735Z,5.10
2019-01-12T05:59:37.292Z,4.20
2019-01-12T06:02:05.752Z,4.83
2019-01-12T06:04:34.248Z,3.93
2019-01-12T06:07:02.685Z,4.03
2019-01-12T06:09:31.132Z,4.57
2019-01-12T06:11:59.540Z,4.13
2019-01-12T06:14:28.004Z,4.47
2019-01-12T06:16:56.439Z,4.00
2019-01-12T06:19:24.921Z,4.10
2019-01-12T06:21:53.446Z,5.33
2019-01-12T06:24:21.889Z,5.30
2019-01-12T06:26:50.370Z,5.03
2019-01-12T06:29:18.854Z,4.97
2019-01-12T06:31:47.279Z,4.60
2019-01-12T06:34:15.822Z,4.70
2019-01-12T06:36:44.246Z,4.80
2019-01-12T06:39:12.719Z,5.33
2019-01-12T06:41:41.159Z,5.67
2019-01-12T06:44:09.607Z,5.47
2019-01-12T06:46:38.013Z,5.47
2019-01-12T06:49:06.470Z,5.60
2019-01-12T06:51:34.898Z,5.30
2019-01-12T06:54:03.333Z,6.43
2019-01-12T06:56:31.780Z,5.67
2019-01-12T06:59:00.194Z,5.23
2019-01-12T07:01:28.625Z,5.43
2019-01-12T07:03:57.061Z,5.13
2019-01-12T07:06:25.513Z,5.90
2019-01-12T07:08:53.914Z,5.53
2019-01-12T07:11:22.330Z,4.60
2019-01-12T07:13:50.779Z,5.60
2019-01-12T07:16:19.213Z,5.10
2019-01-12T07:18:47.656Z,6.03
2019-01-12T07:21:16.166Z,5.13
2019-01-12T07:23:44.641Z,3.83
2019-01-12T07:26:17.526Z,4.60
2019-01-12T07:28:43.254Z,4.50
2019-01-12T07:31:11.703Z,6.20
2019-01-12T07:33:40.180Z,4.67
2019-01-12T07:36:08.581Z,4.77
2019-01-12T07:38:37.052Z,4.87
2019-01-12T07:41:05.432Z,4.87
2019-01-12T07:43:33.837Z,4.87
2019-01-12T07:46:02.666Z,4.67
2019-01-12T07:48:31.077Z,5.13
2019-01-12T07:50:59.487Z,6.10
2019-01-12T07:53:27.925Z,5.37
2019-01-12T07:55:56.349Z,5.73
2019-01-12T07:58:24.749Z,5.67
2019-01-12T08:00:53.232Z,6.57
2019-01-12T08:03:21.663Z,5.97
2019-01-12T08:05:50.138Z,4.97
2019-01-12T08:08:19.471Z,4.57
2019-01-12T08:10:47.908Z,5.10
2019-01-12T08:13:16.357Z,5.57
2019-01-12T08:15:44.792Z,4.47
2019-01-12T08:18:13.251Z,5.03
2019-01-12T08:20:41.644Z,4.77
2019-01-12T08:23:10.149Z,5.70
2019-01-12T08:25:38.628Z,4.57
2019-01-12T08:28:07.108Z,4.70
2019-01-12T08:30:35.525Z,5.77
2019-01-12T08:33:03.979Z,6.90
2019-01-12T08:35:32.435Z,6.33
2019-01-12T08:38:00.885Z,5.53
2019-01-12T08:40:29.338Z,4.80
2019-01-12T08:42:57.782Z,4.50
2019-01-12T08:45:26.258Z,4.27
2019-01-12T08:47:54.665Z,3.77
2019-01-12T08:50:23.114Z,3.10
2019-01-12T08:52:51.530Z,3.60
2019-01-12T08:55:19.949Z,3.47
2019-01-12T08:57:48.394Z,2.57
2019-01-12T09:00:18.641Z,3.27
2019-01-12T09:02:47.073Z,3.50
2019-01-12T09:05:15.741Z,4.03
2019-01-12T09:07:44.158Z,3.03
2019-01-12T09:10:17.572Z,3.47
2019-01-12T09:12:45.961Z,2.83
2019-01-12T09:15:14.516Z,3.17
2019-01-12T09:17:42.999Z,2.87
2019-01-12T09:20:13.949Z,4.60
2019-01-12T09:22:42.936Z,4.20
2019-01-12T09:25:12.105Z,5.70
2019-01-12T09:27:40.586Z,4.60
2019-01-12T09:30:17.466Z,4.00
2019-01-12T09:32:45.940Z,2.97
2019-01-12T09:35:14.729Z,3.60
2019-01-12T09:37:43.205Z,3.30
2019-01-12T09:40:14.282Z,3.47
2019-01-12T09:42:42.709Z,3.10
2019-01-12T09:45:12.987Z,3.27
2019-01-12T09:47:41.437Z,3.83
2019-01-12T09:50:12.788Z,3.83
2019-01-12T09:52:41.198Z,4.00
2019-01-12T09:55:09.976Z,4.30
2019-01-12T09:57:38.392Z,3.93
2019-01-12T10:00:09.915Z,3.90
2019-01-12T10:02:38.337Z,3.33
2019-01-12T10:05:07.068Z,3.57
2019-01-12T10:07:35.505Z,3.00
2019-01-12T10:10:06.771Z,2.83
2019-01-12T10:12:35.219Z,3.63
2019-01-12T10:15:04.255Z,3.57
2019-01-12T10:17:32.653Z,2.90
2019-01-12T10:20:01.464Z,3.00
2019-01-12T10:22:29.901Z,1.70
2019-01-12T10:24:59.228Z,2.30
2019-01-12T10:27:27.781Z,2.23
2019-01-12T10:29:57.590Z,1.73
2019-01-12T10:32:26.113Z,2.33
2019-01-12T10:34:54.563Z,2.20
2019-01-12T10:37:22.969Z,2.17
2019-01-12T10:39:51.486Z,2.77
2019-01-12T10:42:19.926Z,4.33
2019-01-12T10:44:48.402Z,3.03
2019-01-12T10:47:16.802Z,3.50
2019-01-12T10:49:45.262Z,3.37
2019-01-12T10:52:13.694Z,2.87
2019-01-12T10:54:42.147Z,2.50
2019-01-12T10:57:10.650Z,3.13
2019-01-12T10:59:39.110Z,2.70
2019-01-12T11:02:07.623Z,3.33
2019-01-12T11:04:36.081Z,3.37
2019-01-12T11:07:05.151Z,3.47
2019-01-12T11:09:33.627Z,3.63
2019-01-12T11:12:02.032Z,4.23
2019-01-12T11:14:30.482Z,3.77
2019-01-12T11:16:58.882Z,2.93
2019-01-12T11:19:27.345Z,3.53
2019-01-12T11:21:55.846Z,3.50
2019-01-12T11:24:24.294Z,3.47
2019-01-12T11:26:52.700Z,3.37
2019-01-12T11:29:21.141Z,3.70
2019-01-12T11:31:49.562Z,3.90
2019-01-12T11:34:17.981Z,4.60
2019-01-12T11:36:46.454Z,5.33
2019-01-12T11:39:14.884Z,5.13
2019-01-12T11:41:43.285Z,6.50
2019-01-12T11:44:11.752Z,5.67
2019-01-12T11:46:40.156Z,5.70
2019-01-12T11:49:08.561Z,5.93
2019-01-12T11:51:36.980Z,6.13
2019-01-12T11:54:05.415Z,5.50
2019-01-12T11:56:33.840Z,4.63
2019-01-12T11:59:02.301Z,5.97
2019-01-12T12:01:30.730Z,5.00
2019-01-12T12:03:59.164Z,5.50
2019-01-12T12:06:27.680Z,4.13
2019-01-12T12:08:56.144Z,5.07
2019-01-12T12:11:24.592Z,4.33
2019-01-12T12:13:52.996Z,4.67
2019-01-12T12:16:21.393Z,3.37
2019-01-12T12:18:49.874Z,3.00
2019-01-12T12:21:18.369Z,3.40
2019-01-12T12:23:46.834Z,3.00
2019-01-12T12:26:15.289Z,2.87
2019-01-12T12:28:43.692Z,3.20
2019-01-12T12:31:12.108Z,3.37
2019-01-12T12:33:40.536Z,2.83
2019-01-12T12:36:09.086Z,4.17
2019-01-12T12:38:37.501Z,4.80
2019-01-12T12:41:05.922Z,4.17
2019-01-12T12:43:34.356Z,4.30
2019-01-12T12:46:02.766Z,2.63
2019-01-12T12:48:31.210Z,3.60
2019-01-12T12:50:59.618Z,2.20
2019-01-12T12:53:28.134Z,2.60
2019-01-12T12:55:56.624Z,2.67
2019-01-12T12:58:25.067Z,2.07
2019-01-12T13:00:53.468Z,1.90
2019-01-12T13:03:21.890Z,4.00
2019-01-12T13:05:50.344Z,3.80
2019-01-12T13:08:18.794Z,2.30
2019-01-12T13:10:47.196Z,1.57
2019-01-12T13:13:15.689Z,2.17
2019-01-12T13:15:44.076Z,2.27
2019-01-12T13:18:12.614Z,2.23
2019-01-12T13:20:41.075Z,2.17
2019-01-12T13:23:09.594Z,2.37
2019-01-12T13:25:38.063Z,3.00
2019-01-12T13:28:06.570Z,3.20
2019-01-12T13:30:34.957Z,3.17
2019-01-12T13:33:03.490Z,3.07
2019-01-12T13:35:31.862Z,3.20
2019-01-12T13:38:00.389Z,2.73
2019-01-12T13:40:28.810Z,3.20
2019-01-12T13:42:57.304Z,3.60
2019-01-12T13:45:25.802Z,4.00
2019-01-12T13:47:54.329Z,4.73
2019-01-12T13:50:24.522Z,4.63
2019-01-12T13:52:52.994Z,3.53
2019-01-12T13:55:21.437Z,4.03
2019-01-12T13:57:50.822Z,3.90
2019-01-12T14:00:21.733Z,4.23
2019-01-12T14:02:50.224Z,4.90
2019-01-12T14:05:18.809Z,4.03
2019-01-12T14:07:47.252Z,4.73
2019-01-12T14:10:18.629Z,4.10
2019-01-12T14:12:47.335Z,4.00
2019-01-12T14:15:17.394Z,3.70
2019-01-12T14:17:45.910Z,3.40
2019-01-12T14:20:17.428Z,4.20
2019-01-12T14:22:45.871Z,4.53
2019-01-12T14:25:14.288Z,4.50
2019-01-12T14:27:42.742Z,4.17
2019-01-12T14:30:15.661Z,4.50
2019-01-12T14:32:44.358Z,4.97
2019-01-12T14:35:14.409Z,4.47
2019-01-12T14:37:42.904Z,4.13
2019-01-12T14:40:14.745Z,4.40
2019-01-12T14:42:43.289Z,4.23
2019-01-12T14:45:20.238Z,4.33
2019-01-12T14:47:48.706Z,4.00
2019-01-12T14:50:17.260Z,4.10
2019-01-12T14:52:45.860Z,3.30
2019-01-12T14:55:16.738Z,3.40
2019-01-12T14:57:45.213Z,3.00
2019-01-12T15:00:18.722Z,4.70
2019-01-12T15:02:47.233Z,4.80
2019-01-12T15:05:17.638Z,5.23
2019-01-12T15:07:46.228Z,4.30
2019-01-12T15:10:16.807Z,5.13
2019-01-12T15:12:45.631Z,4.40
2019-01-12T15:15:15.632Z,3.30
2019-01-12T15:17:44.059Z,3.13
2019-01-12T15:20:15.410Z,3.57
2019-01-12T15:22:43.806Z,3.30
2019-01-12T15:25:12.831Z,2.70
2019-01-12T15:27:41.328Z,4.03
2019-01-12T15:30:18.129Z,3.70
2019-01-12T15:32:46.586Z,3.03
2019-01-12T15:35:15.852Z,4.83
2019-01-12T15:37:44.377Z,3.63
2019-01-12T15:40:15.365Z,3.47
2019-01-12T15:42:43.878Z,4.10
2019-01-12T15:45:17.710Z,4.33
2019-01-12T15:47:46.121Z,4.13
2019-01-12T15:50:20.134Z,3.47
2019-01-12T15:52:48.612Z,3.00
2019-01-12T15:55:17.199Z,3.90
2019-01-12T15:57:45.599Z,3.20
2019-01-12T16:00:19.731Z,3.43
2019-01-12T16:02:48.278Z,4.00
2019-01-12T16:05:16.736Z,2.57
2019-01-12T16:07:45.128Z,3.73
2019-01-12T16:10:14.980Z,3.60
2019-01-12T16:12:43.609Z,3.93
2019-01-12T16:15:15.190Z,3.03
2019-01-12T16:17:43.712Z,3.30
2019-01-12T16:20:21.220Z,3.23
2019-01-12T16:22:49.660Z,3.90
2019-01-12T16:25:18.153Z,3.77
2019-01-12T16:27:46.648Z,3.30
2019-01-12T16:30:19.954Z,3.60
2019-01-12T16:32:48.753Z,3.63
2019-01-12T16:35:21.538Z,4.33
2019-01-12T16:37:50.237Z,2.93
2019-01-12T16:40:23.836Z,3.13
2019-01-12T16:42:52.410Z,2.40
2019-01-12T16:45:20.995Z,2.90
2019-01-12T16:47:49.442Z,2.40
2019-01-12T16:50:18.012Z,2.93
2019-01-12T16:52:46.499Z,2.23
2019-01-12T16:55:16.230Z,2.27
2019-01-12T16:57:44.888Z,2.27
2019-01-12T17:00:18.400Z,2.70
2019-01-12T17:02:46.887Z,2.30
2019-01-12T17:05:15.404Z,2.97
2019-01-12T17:07:44.064Z,2.53
2019-01-12T17:10:18.182Z,2.47
2019-01-12T17:12:46.633Z,2.90
2019-01-12T17:15:17.381Z,1.93
2019-01-12T17:17:45.800Z,2.17
2019-01-12T17:20:17.218Z,2.80
2019-01-12T17:22:46.201Z,2.33
2019-01-12T17:25:14.730Z,4.00
2019-01-12T17:27:43.349Z,2.70
2019-01-12T17:30:17.203Z,1.90
2019-01-12T17:32:45.749Z,3.47
2019-01-12T17:35:14.450Z,3.70
2019-01-12T17:37:43.144Z,2.87
2019-01-12T17:40:13.387Z,2.33
2019-01-12T17:42:42.046Z,3.07
2019-01-12T17:45:18.727Z,3.50
2019-01-12T17:47:47.216Z,2.77
2019-01-12T17:50:17.746Z,2.50
2019-01-12T17:52:46.434Z,3.10
2019-01-12T17:55:18.189Z,2.70
2019-01-12T17:57:46.662Z,2.50
2019-01-12T18:00:20.277Z,3.07
2019-01-12T18:02:48.759Z,2.67
2019-01-12T18:05:17.238Z,3.37
2019-01-12T18:07:45.716Z,2.63
2019-01-12T18:10:15.106Z,2.73
2019-01-12T18:12:43.513Z,2.30
2019-01-12T18:15:14.343Z,3.10
2019-01-12T18:17:42.843Z,3.37
2019-01-12T18:20:16.897Z,2.10
2019-01-12T18:22:45.755Z,3.70
2019-01-12T18:25:14.638Z,3.53
2019-01-12T18:27:43.046Z,3.03
2019-01-12T18:30:22.011Z,2.90
2019-01-12T18:32:50.620Z,2.07
2019-01-12T18:35:19.162Z,1.77
2019-01-12T18:37:48.618Z,1.97
2019-01-12T18:40:21.273Z,2.30
2019-01-12T18:42:49.854Z,2.50
2019-01-12T18:45:19.852Z,2.00
2019-01-12T18:47:48.276Z,2.13
2019-01-12T18:50:19.294Z,1.83
2019-01-12T18:52:47.965Z,1.67
2019-01-12T18:55:16.836Z,1.80
2019-01-12T18:57:45.264Z,2.40
2019-01-12T19:00:18.521Z,1.57
2019-01-12T19:02:47.366Z,2.00
2019-01-12T19:05:15.984Z,2.00
2019-01-12T19:07:44.553Z,2.00
2019-01-12T19:10:14.080Z,1.80
2019-01-12T19:12:42.591Z,1.93
2019-01-12T19:15:13.982Z,2.00
2019-01-12T19:17:42.400Z,1.80
2019-01-12T19:20:11.010Z,2.60
2019-01-12T19:22:39.718Z,1.90
2019-01-12T19:25:10.880Z,1.70
2019-01-12T19:27:39.410Z,1.67
2019-01-12T19:30:16.295Z,1.80
2019-01-12T19:32:45.016Z,2.00
2019-01-12T19:35:13.549Z,2.53
2019-01-12T19:37:41.970Z,2.67
2019-01-12T19:40:16.338Z,1.80
2019-01-12T19:42:44.766Z,2.00
2019-01-12T19:45:14.958Z,2.50
2019-01-12T19:47:43.402Z,2.20
2019-01-12T19:50:17.336Z,3.00
2019-01-12T19:52:45.844Z,3.73
2019-01-12T19:55:14.362Z,2.23
2019-01-12T19:57:42.919Z,2.00
2019-01-12T20:00:14.460Z,2.27
2019-01-12T20:02:42.899Z,1.80
2019-01-12T20:05:12.368Z,1.97
2019-01-12T20:07:40.824Z,1.83
2019-01-12T20:10:12.347Z,1.30
2019-01-12T20:12:40.788Z,1.60
2019-01-12T20:15:12.565Z,1.80
2019-01-12T20:17:40.961Z,2.30
2019-01-12T20:20:12.306Z,2.27
2019-01-12T20:22:40.757Z,1.90
2019-01-12T20:25:12.151Z,1.10
2019-01-12T20:27:40.580Z,1.23
2019-01-12T20:30:17.764Z,1.50
2019-01-12T20:32:49.315Z,1.80
2019-01-12T20:35:32.417Z,1.83
2019-01-12T20:38:21.595Z,1.53
2019-01-12T20:40:55.868Z,1.40
2019-01-12T20:43:39.274Z,1.80
2019-01-12T20:46:25.501Z,1.60
2019-01-12T20:48:59.866Z,1.53
2019-01-12T20:51:45.543Z,1.33
2019-01-12T20:54:19.780Z,3.93
2019-01-12T20:56:53.916Z,1.47
2019-01-12T20:59:28.222Z,2.03
2019-01-12T21:02:10.566Z,1.57
2019-01-12T21:04:44.726Z,1.63
2019-01-12T21:07:22.173Z,1.90
2019-01-12T21:10:05.326Z,1.50
2019-01-12T21:13:03.361Z,2.07
2019-01-12T21:15:35.028Z,1.63
2019-01-12T21:18:03.409Z,1.40
2019-01-12T21:20:32.044Z,1.60
2019-01-12T21:23:00.449Z,1.77
2019-01-12T21:25:28.922Z,1.40
2019-01-12T21:27:57.425Z,1.60
2019-01-12T21:30:25.828Z,1.67
2019-01-12T21:32:54.273Z,1.67
2019-01-12T21:35:22.715Z,1.37
2019-01-12T21:37:51.109Z,1.33
2019-01-12T21:40:19.543Z,1.47
2019-01-12T21:42:48.038Z,1.30
2019-01-12T21:45:16.577Z,1.40
2019-01-12T21:47:45.006Z,1.60
2019-01-12T21:50:15.484Z,1.73
2019-01-12T21:52:43.874Z,1.07
2019-01-12T21:55:12.475Z,1.70
2019-01-12T21:57:41.031Z,1.50
2019-01-12T22:00:15.417Z,1.13
2019-01-12T22:02:43.908Z,1.90
2019-01-12T22:05:13.061Z,1.60
2019-01-12T22:07:41.576Z,1.73
2019-01-12T22:10:19.026Z,2.00
2019-01-12T22:12:43.245Z,1.23
2019-01-12T22:15:15.721Z,1.53
2019-01-12T22:17:44.144Z,1.83
2019-01-12T22:20:16.675Z,1.53
2019-01-12T22:22:45.321Z,2.20
2019-01-12T22:25:13.939Z,1.73
2019-01-12T22:27:42.473Z,1.77
2019-01-12T22:30:18.197Z,1.37
2019-01-12T22:32:46.721Z,1.63
2019-01-12T22:35:15.162Z,1.50
2019-01-12T22:37:43.587Z,2.03
2019-01-12T22:40:15.035Z,1.87
2019-01-12T22:42:43.516Z,4.30
2019-01-12T22:45:12.034Z,1.50
2019-01-12T22:47:40.449Z,1.20
2019-01-12T22:50:14.792Z,1.40
2019-01-12T22:52:43.464Z,1.10
2019-01-12T22:55:13.803Z,1.53
2019-01-12T22:57:42.467Z,1.30
2019-01-12T23:00:25.749Z,1.10
2019-01-12T23:02:54.313Z,1.03
2019-01-12T23:05:22.923Z,1.20
2019-01-12T23:07:51.341Z,1.43
2019-01-12T23:10:19.809Z,1.30
2019-01-12T23:12:48.263Z,1.40
2019-01-12T23:15:16.799Z,1.47
2019-01-12T23:17:45.213Z,1.50
2019-01-12T23:20:13.872Z,1.50
2019-01-12T23:22:42.352Z,1.80
2019-01-12T23:25:10.919Z,2.07
2019-01-12T23:27:39.361Z,2.17
2019-01-12T23:30:13.114Z,2.27
2019-01-12T23:32:41.595Z,2.03
2019-01-12T23:35:11.199Z,3.30
2019-01-12T23:37:40.098Z,2.67
2019-01-12T23:40:13.886Z,2.50
2019-01-12T23:42:42.373Z,2.80
2019-01-12T23:45:12.866Z,2.77
2019-01-12T23:47:41.446Z,2.10
2019-01-12T23:50:13.785Z,2.53
2019-01-12T23:52:42.234Z,2.43
2019-01-12T23:55:10.854Z,2.60
2019-01-12T23:57:39.475Z,2.87
